Airfield :
LOGIN :

Register | Disclaimer

   EN    FR    IT 

 










Legend :    VFR   Marginal VFR   IFR   Intensive IFR   Very Intensive IFR
Visi :
Ceiling :
>= 8 km
>= 3000ft
5 to 8 km
1000 to 3000 ft
1500m to 5 km
500 to 1000 ft
800 to 1500m
200 to 500 ft
< 800m
< 200 ft
Symbols :   Thunderstorms  Fog  Heavy snow  Heavy precipitations  Wind > 20 kt
SIGMETs :     Misc.  Thunderstorms  Icing  Turbulence  Mountain Waves  Volcanic Ashes






- Airport Elevation : -15 ft
- IATA code : RTM


EHRD - Rotterdam Zestienhoven

CURRENT METAR :
  • 261125Z AUTO 27006KT 230V330 9999 FEW016 SCT019 BKN032 06/03 Q1017 NOSIG

EXPIRED METARs :
  • 261055Z AUTO 28004KT 250V310 9999 FEW017 SCT037 05/03 Q1017 NOSIG
  • 261025Z AUTO 34004KT 290V020 9999 FEW016 SCT033 OVC039 05/03 Q1017 NOSIG
  • 260955Z AUTO 29007KT 260V320 9999 FEW011 BKN013 BKN016 05/03 Q1017 NOSIG
  • 260925Z AUTO 29008KT 250V330 9999 -RA SCT016 BKN019 BKN022 05/04 Q1017 RERA REDZ NOSIG
  • 260855Z AUTO 27007KT 250V310 9999 SCT020 BKN024 BKN028 04/02 Q1016 TEMPO 6000 SHRA SCT020CB

TAF COR TAF EHRD
Valid from the 26 at 12:00 until the 27 at 18:00 UTC


261116Z 2612/2718 27008KT 9999 SCT025
BECMG 2618/2621 20012KT
BECMG 2622/2701 4500 -RADZ -RASN BR BKN014
BECMG 2703/2706 -DZ SCT003 BKN005
BECMG 2708/2711 29014KT 9999 NSW BKN015
PROB30
TEMPO 2711/2718 5000 -DZ BKN008
BECMG 2715/2718 31008KT



MET'MAP, your aeronautical weather chart ! - Copyright ORBIFLY December 2007 - Disclaimer

ORBIFLY MET'MAP TEAM :

Programming & Development : Alexandra Zaïnal
Concept & original design : Baudouin d'Aumeries
Assistance for programming : Marc-Olivier Méhu
Technical & hardware support : Manuel Goepfert

Contact : metmap@orbifly.com




SOURCES & CREDITS :

   NOAA